createdAt,value
2018-06-13T00:00:11.992Z,97.80
2018-06-13T00:01:15.045Z,97.60
2018-06-13T00:02:18.109Z,97.50
2018-06-13T00:03:21.243Z,97.60
2018-06-13T00:04:24.451Z,97.40
2018-06-13T00:05:27.560Z,97.40
2018-06-13T00:06:30.586Z,98.00
2018-06-13T00:07:33.624Z,97.70
2018-06-13T00:08:36.643Z,97.50
2018-06-13T00:09:39.662Z,97.20
2018-06-13T00:10:42.710Z,97.30
2018-06-13T00:11:45.747Z,97.30
2018-06-13T00:12:48.784Z,97.10
2018-06-13T00:13:51.830Z,97.20
2018-06-13T00:14:54.853Z,97.10
2018-06-13T00:15:57.917Z,96.90
2018-06-13T00:17:00.963Z,96.60
2018-06-13T00:18:04.020Z,96.80
2018-06-13T00:19:07.054Z,96.90
2018-06-13T00:20:10.576Z,97.20
2018-06-13T00:21:13.629Z,97.50
2018-06-13T00:22:16.656Z,97.70
2018-06-13T00:23:20.337Z,98.10
2018-06-13T00:24:23.838Z,97.90
2018-06-13T00:25:26.865Z,98.00
2018-06-13T00:26:29.899Z,98.20
2018-06-13T00:27:32.924Z,98.70
2018-06-13T00:28:35.921Z,98.40
2018-06-13T00:29:38.976Z,98.50
2018-06-13T00:30:42.008Z,98.60
2018-06-13T00:31:45.056Z,98.30
2018-06-13T00:32:48.492Z,98.70
2018-06-13T00:33:51.655Z,99.30
2018-06-13T00:34:54.718Z,98.80
2018-06-13T00:35:57.804Z,98.80
2018-06-13T00:37:01.003Z,98.70
2018-06-13T00:38:04.071Z,98.80
2018-06-13T00:39:07.242Z,98.80
2018-06-13T00:40:10.292Z,98.50
2018-06-13T00:41:13.360Z,98.40
2018-06-13T00:42:16.406Z,98.90
2018-06-13T00:43:20.527Z,98.70
2018-06-13T00:44:23.880Z,98.90
2018-06-13T00:45:26.888Z,99.10
2018-06-13T00:46:29.970Z,98.60
2018-06-13T00:47:33.018Z,99.20
2018-06-13T00:48:36.047Z,99.20
2018-06-13T00:49:39.085Z,99.00
2018-06-13T00:50:42.115Z,99.10
2018-06-13T00:51:45.150Z,99.30
2018-06-13T00:52:48.154Z,99.30
2018-06-13T00:53:51.698Z,99.50
2018-06-13T00:54:54.750Z,99.40
2018-06-13T00:56:09.289Z,99.30
2018-06-13T00:57:12.821Z,99.40
2018-06-13T00:58:15.837Z,99.10
2018-06-13T00:59:18.874Z,98.70
2018-06-13T01:00:21.953Z,98.80
2018-06-13T01:01:25.004Z,99.10
2018-06-13T01:02:28.095Z,99.30
2018-06-13T01:03:31.287Z,99.20
2018-06-13T01:04:34.360Z,99.50
2018-06-13T01:05:37.427Z,99.20
2018-06-13T01:06:40.472Z,99.10
2018-06-13T01:07:43.489Z,99.20
2018-06-13T01:08:46.898Z,99.50
2018-06-13T01:09:49.948Z,99.00
2018-06-13T01:10:53.221Z,98.70
2018-06-13T01:11:56.285Z,98.60
2018-06-13T01:12:59.295Z,98.60
2018-06-13T01:14:02.333Z,98.50
2018-06-13T01:15:05.423Z,98.50
2018-06-13T01:16:08.459Z,98.70
2018-06-13T01:17:11.533Z,98.80
2018-06-13T01:18:14.557Z,99.00
2018-06-13T01:19:17.663Z,98.70
2018-06-13T01:20:20.712Z,98.90
2018-06-13T01:21:23.759Z,98.90
2018-06-13T01:22:26.865Z,98.90
2018-06-13T01:23:30.135Z,98.80
2018-06-13T01:24:33.171Z,98.70
2018-06-13T01:25:36.220Z,98.50
2018-06-13T01:26:39.264Z,98.40
2018-06-13T01:27:42.305Z,98.30
2018-06-13T01:28:45.350Z,98.50
2018-06-13T01:29:48.382Z,98.30
2018-06-13T01:30:51.479Z,98.40
2018-06-13T01:31:54.497Z,98.30
2018-06-13T01:32:57.493Z,98.20
2018-06-13T01:34:00.542Z,98.50
2018-06-13T01:35:03.582Z,98.40
2018-06-13T01:36:06.610Z,98.60
2018-06-13T01:37:09.646Z,98.90
2018-06-13T01:38:12.680Z,98.80
2018-06-13T01:39:15.712Z,98.40
2018-06-13T01:40:18.784Z,98.50
2018-06-13T01:41:21.811Z,98.50
2018-06-13T01:42:24.840Z,98.50
2018-06-13T01:43:27.867Z,98.70
2018-06-13T01:44:31.167Z,98.70
2018-06-13T01:45:34.213Z,98.80
2018-06-13T01:46:37.308Z,99.00
2018-06-13T01:47:40.371Z,99.10
2018-06-13T01:48:43.420Z,99.30
2018-06-13T01:49:46.465Z,99.20
2018-06-13T01:50:55.863Z,99.30
2018-06-13T01:51:58.944Z,99.50
2018-06-13T01:53:01.983Z,99.60
2018-06-13T01:54:04.991Z,99.70
2018-06-13T01:55:08.111Z,99.70
2018-06-13T01:56:11.140Z,99.90
2018-06-13T01:57:14.213Z,99.90
2018-06-13T01:58:17.243Z,99.90
2018-06-13T01:59:20.279Z,99.90
2018-06-13T02:00:23.312Z,99.90
2018-06-13T02:01:26.339Z,99.90
2018-06-13T02:02:29.403Z,99.90
2018-06-13T02:03:32.408Z,99.90
2018-06-13T02:04:35.497Z,99.90
2018-06-13T02:05:38.526Z,99.90
2018-06-13T02:06:41.554Z,99.90
2018-06-13T02:07:45.124Z,99.90
2018-06-13T02:08:48.189Z,99.90
2018-06-13T02:09:51.258Z,99.90
2018-06-13T02:10:54.276Z,99.90
2018-06-13T02:11:57.308Z,99.90
2018-06-13T02:13:00.373Z,99.90
2018-06-13T02:14:03.509Z,99.90
2018-06-13T02:15:06.599Z,99.90
2018-06-13T02:16:09.648Z,99.90
2018-06-13T02:17:12.707Z,99.90
2018-06-13T02:18:15.786Z,99.90
2018-06-13T02:19:18.868Z,99.90
2018-06-13T02:20:21.912Z,99.90
2018-06-13T02:21:24.958Z,99.90
2018-06-13T02:22:28.010Z,99.90
2018-06-13T02:23:31.039Z,99.90
2018-06-13T02:24:34.180Z,99.90
2018-06-13T02:25:37.212Z,99.90
2018-06-13T02:26:40.228Z,99.90
2018-06-13T02:27:43.400Z,99.90
2018-06-13T02:28:46.425Z,99.90
2018-06-13T02:29:49.499Z,99.90
2018-06-13T02:30:52.509Z,99.90
2018-06-13T02:31:55.528Z,99.90
2018-06-13T02:32:58.569Z,99.90
2018-06-13T02:34:01.609Z,99.90
2018-06-13T02:35:04.659Z,99.90
2018-06-13T02:36:07.714Z,99.90
2018-06-13T02:37:10.732Z,99.90
2018-06-13T02:38:13.763Z,99.90
2018-06-13T02:39:16.830Z,99.90
2018-06-13T02:40:19.990Z,99.90
2018-06-13T02:41:23.014Z,99.90
2018-06-13T02:42:26.030Z,99.90
2018-06-13T02:43:29.063Z,99.90
2018-06-13T02:44:32.919Z,99.90
2018-06-13T02:45:35.963Z,99.90
2018-06-13T02:46:39.025Z,99.90
2018-06-13T02:47:42.043Z,99.90
2018-06-13T02:48:45.072Z,99.90
2018-06-13T02:49:48.184Z,99.90
2018-06-13T02:50:51.232Z,99.90
2018-06-13T02:51:54.230Z,99.90
2018-06-13T02:52:57.252Z,99.90
2018-06-13T02:54:00.307Z,99.90
2018-06-13T02:55:03.376Z,99.90
2018-06-13T02:56:06.474Z,99.90
2018-06-13T02:57:09.492Z,99.90
2018-06-13T02:58:12.508Z,99.90
2018-06-13T02:59:15.556Z,99.90
2018-06-13T03:00:18.583Z,99.90
2018-06-13T03:01:21.670Z,99.90
2018-06-13T03:02:24.712Z,99.90
2018-06-13T03:03:27.747Z,99.90
2018-06-13T03:04:30.791Z,99.90
2018-06-13T03:05:33.828Z,99.90
2018-06-13T03:06:36.843Z,99.90
2018-06-13T03:07:39.887Z,99.90
2018-06-13T03:08:42.944Z,99.90
2018-06-13T03:09:46.025Z,99.90
2018-06-13T03:10:49.097Z,99.90
2018-06-13T03:11:52.146Z,99.90
2018-06-13T03:12:55.177Z,99.90
2018-06-13T03:13:58.281Z,99.90
2018-06-13T03:15:01.309Z,99.90
2018-06-13T03:16:04.363Z,99.90
2018-06-13T03:17:07.420Z,99.90
2018-06-13T03:18:10.485Z,99.90
2018-06-13T03:19:13.502Z,99.90
2018-06-13T03:20:16.542Z,99.90
2018-06-13T03:21:19.603Z,99.90
2018-06-13T03:22:22.643Z,99.90
2018-06-13T03:23:25.695Z,99.90
2018-06-13T03:24:29.615Z,99.90
2018-06-13T03:25:32.697Z,99.90
2018-06-13T03:26:36.008Z,99.90
2018-06-13T03:27:39.027Z,99.90
2018-06-13T03:28:42.560Z,99.90
2018-06-13T03:29:45.853Z,99.90
2018-06-13T03:30:49.496Z,99.90
2018-06-13T03:31:52.635Z,99.90
2018-06-13T03:32:55.768Z,99.90
2018-06-13T03:33:58.865Z,99.90
2018-06-13T03:35:01.977Z,99.90
2018-06-13T03:36:05.310Z,99.90
2018-06-13T03:37:08.370Z,99.90
2018-06-13T03:38:11.413Z,99.90
2018-06-13T03:39:14.448Z,99.90
2018-06-13T03:40:17.489Z,99.90
2018-06-13T03:41:20.514Z,99.90
2018-06-13T03:42:23.555Z,99.90
2018-06-13T03:43:26.599Z,99.90
2018-06-13T03:44:29.856Z,99.90
2018-06-13T03:45:32.884Z,99.90
2018-06-13T03:46:36.108Z,99.90
2018-06-13T03:47:39.175Z,99.90
2018-06-13T03:48:42.204Z,99.90
2018-06-13T03:49:45.231Z,99.90
2018-06-13T03:50:48.270Z,99.90
2018-06-13T03:51:51.350Z,99.90
2018-06-13T03:52:54.381Z,99.90
2018-06-13T03:53:58.411Z,99.90
2018-06-13T03:55:01.443Z,99.90
2018-06-13T03:56:04.515Z,99.90
2018-06-13T03:57:07.555Z,99.90
2018-06-13T03:58:10.575Z,99.90
2018-06-13T03:59:13.612Z,99.90
2018-06-13T04:00:16.679Z,99.90
2018-06-13T04:01:19.680Z,99.90
2018-06-13T04:02:22.772Z,99.90
2018-06-13T04:03:25.776Z,99.90
2018-06-13T04:04:28.788Z,99.90
2018-06-13T04:05:31.837Z,99.90
2018-06-13T04:06:34.848Z,99.90
2018-06-13T04:07:37.886Z,99.90
2018-06-13T04:08:40.944Z,99.90
2018-06-13T04:09:44.020Z,99.90
2018-06-13T04:10:47.065Z,99.90
2018-06-13T04:11:50.039Z,99.90
2018-06-13T04:12:53.120Z,99.90
2018-06-13T04:13:56.181Z,99.90
2018-06-13T04:14:59.152Z,99.90
2018-06-13T04:16:02.125Z,99.90
2018-06-13T04:17:05.287Z,99.90
2018-06-13T04:18:08.304Z,99.90
2018-06-13T04:19:11.306Z,99.90
2018-06-13T04:20:14.303Z,99.90
2018-06-13T04:21:17.339Z,99.90
2018-06-13T04:22:20.366Z,99.90
2018-06-13T04:23:23.343Z,99.90
2018-06-13T04:24:26.898Z,99.90
2018-06-13T04:25:29.919Z,99.90
2018-06-13T04:26:32.967Z,99.90
2018-06-13T04:27:36.033Z,99.90
2018-06-13T04:28:39.252Z,99.90
2018-06-13T04:29:42.368Z,99.90
2018-06-13T04:30:52.148Z,99.90
2018-06-13T04:31:55.152Z,99.90
2018-06-13T04:32:58.173Z,99.90
2018-06-13T04:34:01.190Z,99.90
2018-06-13T04:35:04.242Z,99.90
2018-06-13T04:36:07.256Z,99.90
2018-06-13T04:37:10.251Z,99.90
2018-06-13T04:38:13.243Z,99.90
2018-06-13T04:39:16.267Z,99.90
2018-06-13T04:40:19.259Z,99.90
2018-06-13T04:41:22.253Z,99.90
2018-06-13T04:42:25.244Z,99.90
2018-06-13T04:43:28.236Z,99.90
2018-06-13T04:44:31.304Z,99.90
2018-06-13T04:45:34.334Z,99.90
2018-06-13T04:46:37.443Z,99.90
2018-06-13T04:47:40.415Z,99.90
2018-06-13T04:48:43.476Z,99.90
2018-06-13T04:49:46.636Z,99.90
2018-06-13T04:50:49.679Z,99.90
2018-06-13T04:51:52.710Z,99.90
2018-06-13T04:52:55.704Z,99.90
2018-06-13T04:53:58.747Z,99.90
2018-06-13T04:55:01.712Z,99.90
2018-06-13T04:56:04.867Z,99.90
2018-06-13T04:57:07.865Z,99.90
2018-06-13T04:58:10.981Z,99.90
2018-06-13T04:59:14.008Z,99.90
2018-06-13T05:00:17.036Z,99.90
2018-06-13T05:01:20.069Z,99.90
2018-06-13T05:02:23.212Z,99.90
2018-06-13T05:03:26.277Z,99.90
2018-06-13T05:04:29.268Z,99.90
2018-06-13T05:05:32.281Z,99.90
2018-06-13T05:06:35.289Z,99.90
2018-06-13T05:07:38.297Z,99.90
2018-06-13T05:08:41.329Z,99.90
2018-06-13T05:09:44.307Z,99.90
2018-06-13T05:10:47.314Z,99.90
2018-06-13T05:11:50.304Z,99.90
2018-06-13T05:12:53.342Z,99.90
2018-06-13T05:13:56.356Z,99.90
2018-06-13T05:14:59.343Z,99.90
2018-06-13T05:16:02.380Z,99.90
2018-06-13T05:17:05.391Z,99.90
2018-06-13T05:18:08.379Z,99.90
2018-06-13T05:19:11.444Z,99.90
2018-06-13T05:20:14.452Z,99.90
2018-06-13T05:21:17.447Z,99.90
2018-06-13T05:22:20.427Z,99.90
2018-06-13T05:23:23.433Z,99.90
2018-06-13T05:24:26.445Z,99.90
2018-06-13T05:25:29.459Z,99.90
2018-06-13T05:26:32.473Z,99.90
2018-06-13T05:27:35.546Z,99.90
2018-06-13T05:28:38.534Z,99.90
2018-06-13T05:29:41.558Z,99.90
2018-06-13T05:30:44.544Z,99.90
2018-06-13T05:31:47.536Z,99.90
2018-06-13T05:32:50.525Z,99.90
2018-06-13T05:33:53.705Z,99.90
2018-06-13T05:34:56.772Z,99.90
2018-06-13T05:35:59.792Z,99.90
2018-06-13T05:37:02.780Z,99.90
2018-06-13T05:38:05.791Z,99.90
2018-06-13T05:39:08.828Z,99.90
2018-06-13T05:40:11.876Z,99.90
2018-06-13T05:41:14.871Z,99.90
2018-06-13T05:42:17.836Z,99.90
2018-06-13T05:43:20.823Z,99.90
2018-06-13T05:44:23.822Z,99.90
2018-06-13T05:45:26.822Z,99.90
2018-06-13T05:46:29.830Z,99.90
2018-06-13T05:47:32.833Z,99.90
2018-06-13T05:48:35.828Z,99.90
2018-06-13T05:49:38.832Z,99.90
2018-06-13T05:50:41.856Z,99.90
2018-06-13T05:51:44.853Z,99.90
2018-06-13T05:52:47.877Z,99.90
2018-06-13T05:53:50.875Z,99.90
2018-06-13T05:54:53.865Z,99.90
2018-06-13T05:55:56.884Z,99.90
2018-06-13T05:57:00.075Z,99.90
2018-06-13T05:58:03.092Z,99.90
2018-06-13T05:59:06.183Z,99.90
2018-06-13T06:00:09.172Z,99.90
2018-06-13T06:01:12.196Z,99.90
2018-06-13T06:02:15.189Z,99.90
2018-06-13T06:03:18.213Z,99.90
2018-06-13T06:04:21.263Z,99.90
2018-06-13T06:05:24.268Z,99.90
2018-06-13T06:06:27.288Z,99.90
2018-06-13T06:07:30.275Z,99.90
2018-06-13T06:08:33.340Z,99.90
2018-06-13T06:09:36.348Z,99.90
2018-06-13T06:10:39.571Z,99.90
2018-06-13T06:11:42.591Z,99.90
2018-06-13T06:12:45.618Z,99.90
2018-06-13T06:13:48.669Z,99.90
2018-06-13T06:14:51.671Z,99.90
2018-06-13T06:15:54.737Z,99.90
2018-06-13T06:16:57.796Z,99.90
2018-06-13T06:18:00.878Z,99.90
2018-06-13T06:19:04.165Z,99.90
2018-06-13T06:20:07.599Z,99.90
2018-06-13T06:21:10.605Z,99.90
2018-06-13T06:22:13.660Z,99.90
2018-06-13T06:23:16.815Z,99.90
2018-06-13T06:24:19.848Z,99.90
2018-06-13T06:25:22.873Z,99.90
2018-06-13T06:26:27.226Z,99.90
2018-06-13T06:27:30.549Z,99.90
2018-06-13T06:28:33.631Z,99.90
2018-06-13T06:29:36.702Z,99.90
2018-06-13T06:30:39.749Z,99.90
2018-06-13T06:31:42.783Z,99.90
2018-06-13T06:32:45.913Z,99.90
2018-06-13T06:33:49.131Z,99.90
2018-06-13T06:34:52.156Z,99.90
2018-06-13T06:35:55.174Z,99.90
2018-06-13T06:36:58.372Z,99.90
2018-06-13T06:38:01.429Z,99.90
2018-06-13T06:39:07.168Z,99.90
2018-06-13T06:40:10.289Z,99.90
2018-06-13T06:41:13.307Z,99.90
2018-06-13T06:42:16.428Z,99.90
2018-06-13T06:43:19.449Z,99.90
2018-06-13T06:44:22.512Z,99.90
2018-06-13T06:45:25.592Z,99.90
2018-06-13T06:46:28.669Z,99.90
2018-06-13T06:47:31.756Z,99.90
2018-06-13T06:48:34.858Z,99.90
2018-06-13T06:49:37.967Z,99.90
2018-06-13T06:50:40.959Z,99.90
2018-06-13T06:51:44.027Z,99.90
2018-06-13T06:52:47.049Z,99.90
2018-06-13T06:53:50.070Z,99.90
2018-06-13T06:54:53.139Z,99.90
2018-06-13T06:55:56.127Z,99.90
2018-06-13T06:56:59.208Z,99.90
2018-06-13T06:58:02.256Z,99.90
2018-06-13T06:59:05.321Z,99.90
2018-06-13T07:00:08.391Z,99.90
2018-06-13T07:01:11.396Z,99.90
2018-06-13T07:02:14.448Z,99.90
2018-06-13T07:03:17.491Z,99.90
2018-06-13T07:04:20.489Z,99.90
2018-06-13T07:05:23.519Z,99.90
2018-06-13T07:06:26.543Z,99.90
2018-06-13T07:07:29.630Z,99.90
2018-06-13T07:08:32.766Z,99.90
2018-06-13T07:09:35.814Z,99.90
2018-06-13T07:10:38.904Z,99.90
2018-06-13T07:11:41.929Z,99.90
2018-06-13T07:12:44.983Z,99.90
2018-06-13T07:13:47.992Z,99.90
2018-06-13T07:14:51.024Z,99.90
2018-06-13T07:15:54.115Z,99.90
2018-06-13T07:16:57.131Z,99.90
2018-06-13T07:18:00.684Z,99.90
2018-06-13T07:19:03.858Z,99.90
2018-06-13T07:20:06.836Z,99.90
2018-06-13T07:21:09.901Z,99.90
2018-06-13T07:22:12.929Z,99.90
2018-06-13T07:23:15.975Z,99.90
2018-06-13T07:24:19.044Z,99.90
2018-06-13T07:25:22.104Z,99.90
2018-06-13T07:26:25.107Z,99.90
2018-06-13T07:27:28.160Z,99.90
2018-06-13T07:28:31.185Z,99.90
2018-06-13T07:29:34.206Z,99.90
2018-06-13T07:30:37.260Z,99.90
2018-06-13T07:31:40.323Z,99.90
2018-06-13T07:32:43.404Z,99.90
2018-06-13T07:33:46.472Z,99.90
2018-06-13T07:34:49.494Z,99.90
2018-06-13T07:35:52.531Z,99.90
2018-06-13T07:36:55.541Z,99.90
2018-06-13T07:37:58.536Z,99.90
2018-06-13T07:39:01.568Z,99.90
2018-06-13T07:40:04.590Z,99.90
2018-06-13T07:41:07.601Z,99.90
2018-06-13T07:42:10.686Z,99.90
2018-06-13T07:43:13.703Z,99.90
2018-06-13T07:44:16.736Z,99.90
2018-06-13T07:45:19.780Z,99.90
2018-06-13T07:46:22.841Z,99.90
2018-06-13T07:47:25.843Z,99.90
2018-06-13T07:48:28.955Z,99.90
2018-06-13T07:49:31.971Z,99.90
2018-06-13T07:50:35.072Z,99.90
2018-06-13T07:51:38.134Z,99.90
2018-06-13T07:52:41.125Z,99.90
2018-06-13T07:53:44.165Z,99.90
2018-06-13T07:54:47.129Z,99.90
2018-06-13T07:55:50.136Z,99.90
2018-06-13T07:56:53.182Z,99.90
2018-06-13T07:57:56.176Z,99.90
2018-06-13T07:58:59.188Z,99.90
2018-06-13T08:00:02.206Z,99.90
2018-06-13T08:01:05.220Z,99.90
2018-06-13T08:02:08.241Z,99.90
2018-06-13T08:03:11.646Z,99.90
2018-06-13T08:04:14.760Z,99.90
2018-06-13T08:05:17.793Z,99.90
2018-06-13T08:06:20.820Z,99.90
2018-06-13T08:07:23.836Z,99.90
2018-06-13T08:08:26.876Z,99.90
2018-06-13T08:09:29.876Z,99.90
2018-06-13T08:10:32.935Z,99.90
2018-06-13T08:11:36.049Z,99.90
2018-06-13T08:12:39.096Z,99.90
2018-06-13T08:13:42.077Z,98.70
2018-06-13T08:14:45.072Z,99.10
2018-06-13T08:15:48.099Z,99.20
2018-06-13T08:16:51.147Z,99.40
2018-06-13T08:17:54.176Z,98.80
2018-06-13T08:18:57.198Z,98.30
2018-06-13T08:20:00.278Z,98.60
2018-06-13T08:21:03.297Z,99.40
2018-06-13T08:22:06.315Z,98.20
2018-06-13T08:23:09.341Z,99.30
2018-06-13T08:24:12.381Z,98.00
2018-06-13T08:25:15.467Z,97.50
2018-06-13T08:26:18.529Z,97.50
2018-06-13T08:27:21.543Z,95.60
2018-06-13T08:28:24.630Z,96.60
2018-06-13T08:29:27.650Z,94.50
2018-06-13T08:30:30.681Z,94.20
2018-06-13T08:31:33.694Z,95.00
2018-06-13T08:32:36.679Z,93.60
2018-06-13T08:33:39.772Z,92.50
2018-06-13T08:34:42.763Z,93.80
2018-06-13T08:35:45.739Z,92.40
2018-06-13T08:36:48.711Z,92.10
2018-06-13T08:37:51.786Z,92.30
2018-06-13T08:38:54.904Z,93.00
2018-06-13T08:39:57.943Z,91.90
2018-06-13T08:41:00.935Z,91.80
2018-06-13T08:42:04.006Z,91.60
2018-06-13T08:43:07.055Z,91.90
2018-06-13T08:44:10.067Z,92.30
2018-06-13T08:45:13.085Z,92.60
2018-06-13T08:46:16.109Z,92.70
2018-06-13T08:47:19.156Z,92.80
2018-06-13T08:48:22.170Z,93.20
2018-06-13T08:49:25.212Z,93.40
2018-06-13T08:50:28.219Z,93.60
2018-06-13T08:51:31.247Z,93.60
2018-06-13T08:52:34.236Z,93.90
2018-06-13T08:53:37.265Z,94.20
2018-06-13T08:54:40.247Z,94.40
2018-06-13T08:55:43.295Z,94.20
2018-06-13T08:56:46.352Z,94.40
2018-06-13T08:57:49.373Z,94.30
2018-06-13T08:58:52.472Z,95.70
2018-06-13T08:59:55.480Z,95.30
2018-06-13T09:00:58.552Z,94.50
2018-06-13T09:02:01.600Z,93.90
2018-06-13T09:03:04.671Z,93.30
2018-06-13T09:04:07.701Z,92.30
2018-06-13T09:05:10.740Z,92.20
2018-06-13T09:06:13.778Z,92.40
2018-06-13T09:07:16.775Z,92.00
2018-06-13T09:08:19.803Z,92.20
2018-06-13T09:09:22.848Z,93.10
2018-06-13T09:10:25.903Z,92.90
2018-06-13T09:11:28.967Z,92.80
2018-06-13T09:12:31.996Z,92.60
2018-06-13T09:13:35.015Z,93.70
2018-06-13T09:14:38.074Z,92.00
2018-06-13T09:15:41.091Z,91.50
2018-06-13T09:16:44.133Z,91.90
2018-06-13T09:17:47.158Z,92.50
2018-06-13T09:18:50.204Z,92.40
2018-06-13T09:19:53.189Z,92.60
2018-06-13T09:20:56.200Z,92.90
2018-06-13T09:21:59.221Z,93.00
2018-06-13T09:23:02.245Z,93.10
2018-06-13T09:24:05.256Z,93.30
2018-06-13T09:25:08.272Z,93.50
2018-06-13T09:26:11.292Z,93.80
2018-06-13T09:27:14.383Z,94.70
2018-06-13T09:28:17.412Z,94.30
2018-06-13T09:29:20.477Z,93.70
2018-06-13T09:30:23.487Z,93.50
2018-06-13T09:31:26.487Z,94.00
2018-06-13T09:32:29.516Z,94.10
2018-06-13T09:33:32.841Z,94.10
2018-06-13T09:34:36.073Z,94.60
2018-06-13T09:35:39.185Z,94.50
2018-06-13T09:36:42.393Z,94.60
2018-06-13T09:37:45.524Z,94.20
2018-06-13T09:38:48.524Z,94.00
2018-06-13T09:39:51.517Z,94.60
2018-06-13T09:40:54.539Z,95.00
2018-06-13T09:42:02.449Z,94.90
2018-06-13T09:43:05.605Z,94.80
2018-06-13T09:44:08.675Z,94.10
2018-06-13T09:45:11.874Z,94.80
2018-06-13T09:46:15.131Z,93.90
2018-06-13T09:47:23.458Z,94.20
2018-06-13T09:48:21.412Z,93.90
2018-06-13T09:49:24.428Z,93.30
2018-06-13T09:50:27.460Z,93.60
2018-06-13T09:51:30.532Z,93.90
2018-06-13T09:52:33.559Z,93.80
2018-06-13T09:53:36.562Z,93.60
2018-06-13T09:54:39.585Z,93.80
2018-06-13T09:55:42.663Z,93.80
2018-06-13T09:56:45.949Z,93.80
2018-06-13T09:57:49.508Z,94.30
2018-06-13T09:58:57.994Z,94.10
2018-06-13T10:00:06.500Z,94.20
2018-06-13T10:01:13.806Z,94.10
2018-06-13T10:02:17.098Z,94.00
2018-06-13T10:03:20.141Z,94.30
2018-06-13T10:04:23.163Z,94.60
2018-06-13T10:05:26.196Z,94.30
2018-06-13T10:06:29.221Z,93.80
2018-06-13T10:07:32.287Z,94.10
2018-06-13T10:08:35.321Z,94.50
2018-06-13T10:09:38.340Z,94.30
2018-06-13T10:10:41.354Z,94.10
2018-06-13T10:11:44.401Z,94.60
2018-06-13T10:12:47.384Z,94.60
2018-06-13T10:13:50.448Z,95.00
2018-06-13T10:14:53.457Z,94.40
2018-06-13T10:15:56.465Z,94.60
2018-06-13T10:16:59.491Z,94.90
2018-06-13T10:18:02.522Z,94.50
2018-06-13T10:19:05.629Z,94.60
2018-06-13T10:20:08.831Z,94.80
2018-06-13T10:21:11.876Z,94.90
2018-06-13T10:22:14.946Z,95.50
2018-06-13T10:23:17.918Z,95.40
2018-06-13T10:24:20.952Z,95.40
2018-06-13T10:25:24.015Z,95.60
2018-06-13T10:26:26.980Z,95.70
2018-06-13T10:27:35.364Z,96.30
2018-06-13T10:28:38.364Z,96.60
2018-06-13T10:29:41.412Z,96.30
2018-06-13T10:30:44.489Z,96.60
2018-06-13T10:31:47.498Z,96.50
2018-06-13T10:32:50.476Z,96.70
2018-06-13T10:33:53.481Z,96.90
2018-06-13T10:34:56.542Z,97.30
2018-06-13T10:35:59.572Z,97.10
2018-06-13T10:37:02.600Z,97.30
2018-06-13T10:38:05.629Z,97.70
2018-06-13T10:39:08.699Z,97.70
2018-06-13T10:40:11.772Z,97.80
2018-06-13T10:41:14.773Z,97.80
2018-06-13T10:42:17.830Z,97.70
2018-06-13T10:43:20.839Z,97.60
2018-06-13T10:44:23.908Z,97.40
2018-06-13T10:45:27.012Z,97.30
2018-06-13T10:46:30.096Z,97.30
2018-06-13T10:47:33.120Z,96.90
2018-06-13T10:48:36.145Z,96.50
2018-06-13T10:49:39.179Z,96.30
2018-06-13T10:50:42.208Z,96.30
2018-06-13T10:51:45.246Z,96.10
2018-06-13T10:52:48.362Z,95.90
2018-06-13T10:53:51.342Z,95.60
2018-06-13T10:54:54.369Z,95.50
2018-06-13T10:55:57.391Z,95.20
2018-06-13T10:57:00.419Z,95.40
2018-06-13T10:58:03.464Z,95.00
2018-06-13T10:59:06.480Z,95.00
2018-06-13T11:00:09.592Z,94.40
2018-06-13T11:01:12.588Z,95.10
2018-06-13T11:02:15.604Z,95.10
2018-06-13T11:03:18.674Z,94.70
2018-06-13T11:04:21.695Z,95.10
2018-06-13T11:05:24.818Z,94.60
2018-06-13T11:06:27.924Z,94.40
2018-06-13T11:07:30.945Z,94.50
2018-06-13T11:08:33.955Z,93.50
2018-06-13T11:09:36.975Z,93.10
2018-06-13T11:10:39.991Z,93.60
2018-06-13T11:11:43.077Z,94.10
2018-06-13T11:12:46.091Z,94.10
2018-06-13T11:13:49.150Z,93.90
2018-06-13T11:14:52.160Z,93.60
2018-06-13T11:15:55.183Z,93.70
2018-06-13T11:16:58.228Z,93.50
2018-06-13T11:18:01.260Z,94.10
2018-06-13T11:19:04.267Z,94.20
2018-06-13T11:20:07.272Z,94.60
2018-06-13T11:21:10.270Z,94.30
2018-06-13T11:22:13.274Z,94.00
2018-06-13T11:23:16.281Z,93.40
2018-06-13T11:24:19.303Z,93.40
2018-06-13T11:25:22.458Z,94.30
2018-06-13T11:26:25.454Z,94.00
2018-06-13T11:27:28.469Z,93.70
2018-06-13T11:28:31.639Z,93.90
2018-06-13T11:29:34.667Z,93.80
2018-06-13T11:30:37.656Z,93.80
2018-06-13T11:31:40.653Z,94.00
2018-06-13T11:32:43.684Z,94.30
2018-06-13T11:33:46.698Z,94.50
2018-06-13T11:34:54.123Z,94.80
2018-06-13T11:35:57.139Z,95.00
2018-06-13T11:37:00.157Z,94.80
2018-06-13T11:38:03.152Z,94.90
2018-06-13T11:39:08.191Z,95.40
2018-06-13T11:40:11.213Z,95.60
2018-06-13T11:41:14.226Z,95.60
2018-06-13T11:42:17.219Z,95.40
2018-06-13T11:43:20.264Z,95.60
2018-06-13T11:44:23.314Z,95.80
2018-06-13T11:45:26.303Z,95.70
2018-06-13T11:46:29.331Z,96.50
2018-06-13T11:47:32.338Z,95.90
2018-06-13T11:48:35.339Z,96.20
2018-06-13T11:49:38.369Z,96.10
2018-06-13T11:50:41.354Z,95.90
2018-06-13T11:51:44.345Z,96.20
2018-06-13T11:52:47.331Z,96.40
2018-06-13T11:53:50.297Z,96.50
2018-06-13T11:54:53.352Z,96.30
2018-06-13T11:55:56.396Z,96.50
2018-06-13T11:56:59.493Z,97.00
2018-06-13T11:58:02.556Z,96.90
2018-06-13T11:59:05.877Z,97.10
2018-06-13T12:00:08.969Z,97.00
2018-06-13T12:01:12.087Z,97.10
2018-06-13T12:02:15.345Z,97.70
2018-06-13T12:03:18.435Z,97.40
2018-06-13T12:04:28.055Z,97.50
2018-06-13T12:05:31.109Z,97.70
2018-06-13T12:06:34.097Z,97.40
2018-06-13T12:07:37.155Z,98.10
2018-06-13T12:08:40.229Z,97.90
2018-06-13T12:09:43.299Z,98.00
2018-06-13T12:10:46.392Z,98.00
2018-06-13T12:11:49.512Z,97.80
2018-06-13T12:12:52.523Z,97.80
2018-06-13T12:13:55.517Z,97.50
2018-06-13T12:14:58.540Z,97.70
2018-06-13T12:16:01.576Z,97.70
2018-06-13T12:17:04.656Z,98.00
2018-06-13T12:18:07.737Z,98.00
2018-06-13T12:19:10.739Z,98.20
2018-06-13T12:20:13.782Z,97.90
2018-06-13T12:21:16.812Z,97.70
2018-06-13T12:22:19.830Z,98.00
2018-06-13T12:23:22.837Z,98.40
2018-06-13T12:24:25.824Z,98.20
2018-06-13T12:25:28.823Z,98.40
2018-06-13T12:26:32.053Z,98.30
2018-06-13T12:27:35.166Z,97.70
2018-06-13T12:28:38.288Z,97.60
2018-06-13T12:29:41.404Z,97.70
2018-06-13T12:30:44.442Z,97.90
2018-06-13T12:31:47.478Z,97.60
2018-06-13T12:32:50.872Z,98.10
2018-06-13T12:33:54.393Z,98.20
2018-06-13T12:34:57.399Z,98.30
2018-06-13T12:36:00.627Z,98.00
2018-06-13T12:37:03.677Z,97.60
2018-06-13T12:38:06.688Z,97.80
2018-06-13T12:39:11.046Z,97.60
2018-06-13T12:40:14.105Z,97.90
2018-06-13T12:41:23.797Z,97.80
2018-06-13T12:42:26.870Z,98.10
2018-06-13T12:43:29.853Z,97.80
2018-06-13T12:44:32.879Z,97.40
2018-06-13T12:45:35.957Z,98.10
2018-06-13T12:46:38.931Z,97.70
2018-06-13T12:47:41.991Z,98.10
2018-06-13T12:48:45.041Z,97.00
2018-06-13T12:49:48.096Z,96.80
2018-06-13T12:50:51.236Z,97.00
2018-06-13T12:51:54.238Z,96.80
2018-06-13T12:52:57.447Z,97.60
2018-06-13T12:54:00.939Z,97.70
2018-06-13T12:55:03.981Z,97.60
2018-06-13T12:56:07.065Z,97.50
2018-06-13T12:57:10.106Z,97.70
2018-06-13T12:58:13.125Z,97.10
2018-06-13T12:59:16.289Z,97.50
2018-06-13T13:00:19.312Z,97.20
2018-06-13T13:01:22.331Z,97.20
2018-06-13T13:02:25.480Z,98.00
2018-06-13T13:03:28.611Z,97.70
2018-06-13T13:04:31.688Z,97.40
2018-06-13T13:05:34.645Z,98.00
2018-06-13T13:06:37.627Z,97.90
2018-06-13T13:07:40.629Z,97.90
2018-06-13T13:08:43.666Z,97.70
2018-06-13T13:09:46.744Z,98.00
2018-06-13T13:10:49.752Z,98.10
2018-06-13T13:11:52.758Z,98.10
2018-06-13T13:12:55.773Z,97.80
2018-06-13T13:13:58.921Z,97.70
2018-06-13T13:15:02.113Z,97.80
2018-06-13T13:16:05.428Z,98.20
2018-06-13T13:17:08.473Z,98.60
2018-06-13T13:18:11.494Z,98.70
2018-06-13T13:19:14.530Z,98.70
2018-06-13T13:20:17.571Z,99.20
2018-06-13T13:21:20.547Z,99.10
2018-06-13T13:22:23.575Z,99.50
2018-06-13T13:23:26.632Z,99.80
2018-06-13T13:24:29.688Z,99.90
2018-06-13T13:25:33.019Z,99.90
2018-06-13T13:26:36.040Z,99.90
2018-06-13T13:27:39.120Z,99.90
2018-06-13T13:28:42.124Z,99.90
2018-06-13T13:29:45.168Z,99.90
2018-06-13T13:30:48.499Z,99.90
2018-06-13T13:31:51.536Z,99.90
2018-06-13T13:32:54.516Z,99.90